Weather at Graz Airport

Public forecast

Using degrees Celsius for public forecast. Weather courtesy of forecast.io.

Current aviation weather report (METAR) for Graz Airport

2024/05/22 04:50 (retrieved 15 minutes ago)

LOWG 220450Z AUTO VRB02KT 9999 NCD 13/12 Q1010 NOSIG

Closest aviation forecast (TAF) to Graz Airport

Forecast is more than 6 hours old.

Closest forecast is Bolzano Airport, 172.2 nm (319.0 km) W.

2024/05/21 18:27 (retrieved 11 hours ago)

TAF TAF LIPB 212110Z 2118/2218 CNL